Time;durP1;ratioP1;P1;durP2;ratioP2;P2;SDS_P1;SDS_P2;PMS_P1;PMS_P2;Temp;Humidity;BMP_temperature;BMP_pressure;BME280_temperature;BME280_humidity;BME280_pressure;Samples;Min_cycle;Max_cycle;Signal;HPM_P1;HPM_P2
2021/08/19 00:02:11;;;;;;;1.52;1.40;;;18.40;99.90;;;;;;4992964;28;20472;-44
2021/08/19 00:04:37;;;;;;;2.38;1.48;;;18.40;99.90;;;;;;4992725;28;20026;-51
2021/08/19 00:07:03;;;;;;;1.52;1.42;;;18.40;99.90;;;;;;4992754;28;20440;-52
2021/08/19 00:09:28;;;;;;;1.60;1.50;;;18.40;99.90;;;;;;4992422;28;20034;-43
2021/08/19 00:11:54;;;;;;;1.42;1.42;;;18.40;99.90;;;;;;4992577;28;20034;-47
2021/08/19 00:14:20;;;;;;;4.55;1.48;;;18.30;99.90;;;;;;4992499;28;20027;-47
2021/08/19 00:16:45;;;;;;;1.65;1.55;;;18.30;99.90;;;;;;4992391;28;20030;-47
2021/08/19 00:19:11;;;;;;;1.85;1.58;;;18.40;99.90;;;;;;4992197;28;20034;-50
2021/08/19 00:21:36;;;;;;;1.90;1.80;;;18.30;99.90;;;;;;4992392;28;20401;-43
2021/08/19 00:24:02;;;;;;;2.40;1.58;;;18.40;99.90;;;;;;4991155;28;20494;-47
2021/08/19 00:26:28;;;;;;;1.42;1.33;;;18.30;99.90;;;;;;4992076;28;20034;-50
2021/08/19 00:28:53;;;;;;;2.63;1.88;;;18.30;99.90;;;;;;4992551;28;20045;-46
2021/08/19 00:31:22;;;;;;;1.42;1.38;;;18.30;99.90;;;;;;4992278;28;20487;-42
2021/08/19 00:33:48;;;;;;;7.78;2.20;;;18.30;99.90;;;;;;4975459;28;20396;-49
2021/08/19 00:36:13;;;;;;;2.00;1.90;;;18.30;99.90;;;;;;4991834;28;20030;-45
2021/08/19 00:38:39;;;;;;;1.85;1.50;;;18.30;99.90;;;;;;4991996;28;20046;-48
2021/08/19 00:41:05;;;;;;;3.30;1.50;;;18.30;99.90;;;;;;4992254;28;20449;-47
2021/08/19 00:43:34;;;;;;;1.92;1.83;;;18.30;99.90;;;;;;4956868;28;1025398;-47
2021/08/19 00:46:00;;;;;;;1.67;1.58;;;18.40;99.90;;;;;;4993322;28;20038;-43
2021/08/19 00:48:25;;;;;;;2.03;1.50;;;18.40;99.90;;;;;;4992948;28;20423;-46
2021/08/19 00:50:51;;;;;;;3.35;2.13;;;18.40;99.90;;;;;;4993004;28;20031;-45
2021/08/19 00:53:17;;;;;;;1.70;1.63;;;18.40;99.90;;;;;;4992936;28;20479;-49
2021/08/19 00:55:43;;;;;;;1.80;1.70;;;18.30;99.90;;;;;;4992757;28;20447;-44
2021/08/19 00:58:11;;;;;;;1.75;1.65;;;18.30;99.90;;;;;;4992569;28;20034;-44
2021/08/19 01:00:41;;;;;;;1.98;1.48;;;18.30;99.90;;;;;;4992491;28;20479;-43
2021/08/19 01:03:08;;;;;;;2.95;1.40;;;18.20;99.90;;;;;;4992598;28;20065;-47
2021/08/19 01:05:37;;;;;;;1.80;1.70;;;18.30;99.90;;;;;;4992645;28;20085;-48
2021/08/19 01:08:04;;;;;;;1.73;1.60;;;18.20;99.90;;;;;;4992234;28;20093;-44
2021/08/19 01:10:30;;;;;;;3.53;1.60;;;18.20;99.90;;;;;;4992912;28;20034;-49
2021/08/19 01:12:56;;;;;;;2.05;1.90;;;18.20;99.90;;;;;;4992611;28;20506;-48
2021/08/19 01:15:22;;;;;;;1.80;1.70;;;18.20;99.90;;;;;;4992423;28;20109;-46
2021/08/19 01:18:01;;;;;;;2.03;1.70;;;18.20;99.90;;;;;;4992310;28;20217;-45
2021/08/19 01:20:31;;;;;;;2.83;1.50;;;18.20;99.90;;;;;;4992176;28;20019;-45
2021/08/19 01:22:58;;;;;;;2.95;1.85;;;18.30;99.90;;;;;;4992377;28;20065;-44
2021/08/19 01:25:24;;;;;;;2.08;1.88;;;18.30;99.90;;;;;;4992254;28;20033;-45
2021/08/19 01:27:52;;;;;;;1.92;1.83;;;18.30;99.90;;;;;;4992146;28;20022;-44
2021/08/19 01:30:19;;;;;;;2.92;1.80;;;18.20;99.90;;;;;;4991941;28;20093;-44
2021/08/19 01:32:45;;;;;;;2.10;1.90;;;18.20;99.90;;;;;;4992163;28;20097;-45
2021/08/19 01:35:11;;;;;;;1.60;1.50;;;18.20;99.90;;;;;;4974300;28;20109;-47
2021/08/19 01:37:36;;;;;;;1.92;1.60;;;18.20;99.90;;;;;;4991580;28;20030;-48
2021/08/19 01:40:02;;;;;;;2.90;1.90;;;18.10;99.90;;;;;;4992019;28;20105;-47
2021/08/19 01:42:29;;;;;;;2.42;1.88;;;18.10;99.90;;;;;;4992063;28;20384;-47
2021/08/19 01:44:55;;;;;;;2.45;2.25;;;18.10;99.90;;;;;;4991973;28;20041;-46
2021/08/19 01:47:22;;;;;;;2.63;1.80;;;18.10;99.90;;;;;;4991769;28;20034;-48
2021/08/19 01:49:47;;;;;;;2.10;2.00;;;18.10;99.90;;;;;;4992131;28;20042;-44
2021/08/19 01:52:13;;;;;;;3.78;2.20;;;18.10;99.90;;;;;;4991754;28;20132;-45
2021/08/19 01:54:38;;;;;;;3.40;2.22;;;18.10;99.90;;;;;;4991633;28;20027;-50
2021/08/19 01:57:04;;;;;;;3.17;2.38;;;18.00;99.90;;;;;;4991669;28;20057;-42
2021/08/19 01:59:30;;;;;;;2.53;1.75;;;18.00;99.90;;;;;;4991740;28;20105;-45
2021/08/19 02:01:56;;;;;;;2.60;2.15;;;18.00;99.90;;;;;;4991623;28;20030;-45
2021/08/19 02:04:21;;;;;;;6.25;2.30;;;18.00;99.90;;;;;;4991771;28;20105;-43
2021/08/19 02:06:47;;;;;;;2.53;2.15;;;18.00;99.90;;;;;;4991763;28;20098;-42
2021/08/19 02:09:12;;;;;;;2.10;2.00;;;18.00;99.90;;;;;;4991519;28;20488;-45
2021/08/19 02:11:39;;;;;;;2.47;2.30;;;18.00;99.90;;;;;;4991693;28;20095;-43
2021/08/19 02:14:06;;;;;;;1.98;1.88;;;18.00;99.90;;;;;;4991666;28;20082;-43
2021/08/19 02:16:31;;;;;;;3.70;2.55;;;17.90;99.90;;;;;;4991572;28;20424;-46
2021/08/19 02:18:57;;;;;;;2.08;1.98;;;17.90;99.90;;;;;;4991428;28;20029;-48
2021/08/19 02:21:22;;;;;;;2.50;2.40;;;17.90;99.90;;;;;;4991175;28;20629;-46
2021/08/19 02:23:48;;;;;;;2.85;2.33;;;17.80;99.90;;;;;;4991162;28;20022;-46
2021/08/19 02:26:13;;;;;;;3.33;2.70;;;17.90;99.90;;;;;;4991256;28;20512;-46
2021/08/19 02:28:39;;;;;;;3.05;2.20;;;17.90;99.90;;;;;;4990988;28;20034;-48
2021/08/19 02:31:04;;;;;;;2.30;2.10;;;17.90;99.90;;;;;;4991232;28;20027;-46
2021/08/19 02:33:30;;;;;;;2.25;2.10;;;17.90;99.90;;;;;;4991221;28;20153;-44
2021/08/19 02:35:56;;;;;;;3.30;2.22;;;17.90;99.90;;;;;;4990728;28;20022;-50
2021/08/19 02:38:21;;;;;;;2.45;2.10;;;18.00;99.90;;;;;;4990695;28;20106;-49
2021/08/19 02:40:47;;;;;;;2.72;2.53;;;18.00;99.90;;;;;;4991135;28;20030;-45
2021/08/19 02:43:12;;;;;;;2.60;2.40;;;18.00;99.90;;;;;;4991170;28;20050;-43
2021/08/19 02:48:21;;;;;;;2.25;2.05;;;17.90;99.90;;;;;;5069819;28;20052;-55
2021/08/19 02:50:47;;;;;;;7.43;2.90;;;17.80;99.90;;;;;;5073081;28;20028;-52
2021/08/19 02:53:12;;;;;;;2.10;1.98;;;17.80;99.90;;;;;;5074408;28;20024;-51
2021/08/19 02:55:38;;;;;;;2.60;2.22;;;17.80;99.90;;;;;;5074272;28;20060;-50
2021/08/19 02:58:03;;;;;;;2.72;2.15;;;17.80;99.90;;;;;;5072179;28;20398;-52
2021/08/19 03:00:29;;;;;;;8.27;3.72;;;17.80;99.90;;;;;;5072889;28;20358;-50
2021/08/19 03:02:54;;;;;;;3.03;2.53;;;17.70;99.90;;;;;;5074244;28;20130;-51
2021/08/19 03:05:20;;;;;;;3.22;2.85;;;17.70;99.90;;;;;;5074223;28;20375;-50
2021/08/19 03:07:45;;;;;;;3.17;2.58;;;17.70;99.90;;;;;;5072073;28;20038;-52
2021/08/19 03:10:11;;;;;;;3.35;3.08;;;17.70;99.90;;;;;;5074047;28;20104;-50
2021/08/19 03:12:37;;;;;;;6.03;3.03;;;17.70;99.90;;;;;;5074077;28;20431;-50
2021/08/19 03:15:03;;;;;;;4.80;2.97;;;17.70;99.90;;;;;;5074233;28;20021;-50
2021/08/19 03:17:29;;;;;;;3.60;3.30;;;17.70;99.90;;;;;;5073191;28;20021;-49
2021/08/19 03:19:55;;;;;;;4.57;3.80;;;17.60;99.90;;;;;;5074128;28;20082;-55
2021/08/19 03:22:21;;;;;;;3.67;3.38;;;17.60;99.90;;;;;;5074066;28;20600;-53
2021/08/19 03:24:46;;;;;;;5.47;4.65;;;17.50;99.90;;;;;;5073681;28;20032;-52
2021/08/19 03:27:13;;;;;;;3.83;3.38;;;17.50;99.90;;;;;;5073435;28;20031;-49
2021/08/19 03:29:39;;;;;;;7.32;4.25;;;17.50;99.90;;;;;;5073500;28;20530;-52
2021/08/19 03:32:05;;;;;;;5.90;4.00;;;17.50;99.90;;;;;;5073802;28;20133;-51
2021/08/19 03:34:31;;;;;;;5.32;3.63;;;17.50;99.90;;;;;;5073512;28;20136;-47
2021/08/19 03:36:56;;;;;;;5.15;3.92;;;17.40;99.90;;;;;;5073475;28;20099;-51
2021/08/19 03:39:25;;;;;;;4.05;3.60;;;17.40;99.90;;;;;;5073199;28;20031;-48
2021/08/19 03:41:51;;;;;;;5.88;3.78;;;17.40;99.90;;;;;;5073949;28;20024;-49
2021/08/19 03:44:17;;;;;;;6.55;3.97;;;17.40;99.90;;;;;;5073512;28;20021;-50
2021/08/19 03:46:43;;;;;;;3.80;3.50;;;17.40;99.90;;;;;;5073097;28;20082;-51
2021/08/19 03:49:08;;;;;;;4.78;3.47;;;17.40;99.90;;;;;;5072604;28;20025;-52
2021/08/19 03:51:35;;;;;;;3.90;3.50;;;17.40;99.90;;;;;;5073371;28;20029;-50
2021/08/19 03:54:00;;;;;;;4.47;3.28;;;17.30;99.90;;;;;;5073467;28;20501;-51
2021/08/19 03:56:30;;;;;;;3.38;3.17;;;17.30;99.90;;;;;;5073179;28;20270;-49
2021/08/19 03:58:56;;;;;;;3.78;3.10;;;17.30;99.90;;;;;;5072423;28;20502;-52
2021/08/19 04:01:22;;;;;;;3.63;3.20;;;17.30;99.90;;;;;;5073340;28;20382;-51
2021/08/19 04:03:48;;;;;;;4.63;3.50;;;17.40;99.90;;;;;;5073089;28;20025;-50
2021/08/19 04:06:14;;;;;;;4.80;3.38;;;17.40;99.90;;;;;;5073186;28;20023;-51
2021/08/19 04:08:39;;;;;;;4.32;3.25;;;17.30;99.90;;;;;;5072376;28;20038;-50
2021/08/19 04:11:05;;;;;;;3.58;3.38;;;17.30;99.90;;;;;;5073084;28;20119;-56
2021/08/19 04:13:30;;;;;;;6.97;3.85;;;17.20;99.90;;;;;;5071665;28;20052;-53
2021/08/19 04:15:56;;;;;;;4.55;3.22;;;17.20;99.90;;;;;;5072735;28;20474;-47
2021/08/19 04:18:21;;;;;;;11.25;3.55;;;17.20;99.90;;;;;;5071033;28;20131;-54
2021/08/19 04:20:47;;;;;;;4.22;3.42;;;17.30;99.90;;;;;;5073129;28;20107;-54
2021/08/19 04:23:12;;;;;;;3.88;3.38;;;17.30;99.90;;;;;;5071617;28;20151;-51
2021/08/19 04:25:38;;;;;;;3.83;3.53;;;17.30;99.90;;;;;;5073018;28;20095;-50
2021/08/19 04:28:03;;;;;;;4.88;3.97;;;17.30;99.90;;;;;;5072109;28;20032;-50
2021/08/19 04:30:29;;;;;;;5.20;3.47;;;17.30;99.90;;;;;;5072575;28;20028;-55
2021/08/19 04:32:54;;;;;;;3.58;3.28;;;17.30;99.90;;;;;;5070137;28;20112;-54
2021/08/19 04:35:20;;;;;;;4.13;3.72;;;17.30;99.90;;;;;;5072771;28;20021;-53
2021/08/19 04:37:45;;;;;;;9.63;4.07;;;17.30;99.90;;;;;;5072232;28;20492;-57
2021/08/19 04:40:11;;;;;;;6.13;3.78;;;17.30;99.90;;;;;;5072797;28;20382;-52
2021/08/19 04:42:37;;;;;;;4.43;4.07;;;17.30;99.90;;;;;;5072459;28;20286;-50
2021/08/19 04:45:03;;;;;;;3.88;3.53;;;17.30;99.90;;;;;;5072197;28;20125;-50
2021/08/19 04:47:28;;;;;;;5.90;3.95;;;17.20;99.90;;;;;;5071489;28;20029;-54
2021/08/19 04:49:54;;;;;;;3.70;3.35;;;17.30;99.90;;;;;;5072330;28;20104;-53
2021/08/19 04:52:19;;;;;;;4.28;3.88;;;17.30;99.90;;;;;;5072213;28;20056;-57
2021/08/19 04:54:45;;;;;;;4.32;4.03;;;17.30;99.90;;;;;;5072305;28;20023;-53
2021/08/19 04:57:10;;;;;;;8.50;4.35;;;17.30;99.90;;;;;;5071704;28;20027;-48
2021/08/19 04:59:36;;;;;;;6.00;4.35;;;17.30;99.90;;;;;;5072087;28;20025;-49
2021/08/19 05:02:01;;;;;;;5.53;4.40;;;17.30;99.90;;;;;;5071177;28;20028;-49
2021/08/19 05:04:27;;;;;;;6.68;3.58;;;17.30;99.90;;;;;;5072167;28;20027;-49
2021/08/19 05:06:53;;;;;;;6.10;4.50;;;17.30;99.90;;;;;;5072519;28;20104;-50
2021/08/19 05:09:18;;;;;;;4.68;4.07;;;17.30;99.90;;;;;;5071028;28;20024;-52
2021/08/19 05:11:44;;;;;;;4.30;4.00;;;17.30;99.90;;;;;;5071665;28;20028;-50
2021/08/19 05:14:09;;;;;;;5.43;4.57;;;17.40;99.90;;;;;;5071982;28;20020;-48
2021/08/19 05:16:35;;;;;;;4.38;3.97;;;17.50;99.90;;;;;;5071603;28;20025;-49
2021/08/19 05:19:00;;;;;;;4.53;4.13;;;17.40;99.90;;;;;;5071055;28;20029;-52
2021/08/19 05:21:26;;;;;;;3.92;3.63;;;17.40;99.90;;;;;;5071656;28;20029;-55
2021/08/19 05:23:52;;;;;;;4.93;3.78;;;17.50;99.90;;;;;;5072004;28;20028;-49
2021/08/19 05:26:18;;;;;;;4.53;4.10;;;17.40;99.90;;;;;;5071498;28;20494;-50
2021/08/19 05:28:44;;;;;;;5.05;3.63;;;17.50;99.90;;;;;;5070297;28;20040;-51
2021/08/19 05:31:11;;;;;;;4.45;3.25;;;17.50;99.90;;;;;;5069503;28;20029;-49
2021/08/19 05:33:38;;;;;;;3.65;3.35;;;17.50;99.90;;;;;;5071994;28;20366;-54
2021/08/19 05:36:08;;;;;;;3.55;3.25;;;17.60;99.90;;;;;;5071354;28;20050;-50
2021/08/19 05:38:34;;;;;;;4.43;3.97;;;17.60;99.90;;;;;;5070629;28;20016;-50
2021/08/19 05:40:59;;;;;;;3.53;3.28;;;17.60;99.90;;;;;;5071504;28;20023;-51
2021/08/19 05:43:25;;;;;;;4.18;3.78;;;17.70;99.90;;;;;;5071153;28;20082;-50
2021/08/19 05:45:50;;;;;;;4.32;3.42;;;17.70;99.90;;;;;;5071166;28;20422;-48
2021/08/19 05:48:16;;;;;;;5.35;3.40;;;17.80;99.90;;;;;;5070537;28;20038;-50
2021/08/19 05:50:41;;;;;;;3.38;3.10;;;17.80;99.90;;;;;;5071398;28;20024;-53
2021/08/19 05:53:07;;;;;;;2.85;2.65;;;17.80;99.90;;;;;;5069946;28;20078;-50
2021/08/19 05:55:33;;;;;;;3.70;3.40;;;17.80;99.90;;;;;;5070968;28;20025;-53
2021/08/19 05:57:59;;;;;;;3.50;3.20;;;17.80;99.90;;;;;;5070161;28;20062;-51
2021/08/19 06:00:25;;;;;;;3.65;2.83;;;17.80;99.90;;;;;;5069525;28;20108;-52
2021/08/19 06:02:51;;;;;;;2.90;2.70;;;17.80;99.90;;;;;;5070960;28;20108;-50
2021/08/19 06:05:17;;;;;;;2.42;2.22;;;17.90;99.90;;;;;;5070872;28;20190;-52
2021/08/19 06:07:43;;;;;;;4.90;2.80;;;17.90;99.90;;;;;;5070078;28;20612;-51
2021/08/19 06:10:10;;;;;;;3.20;3.00;;;18.00;99.90;;;;;;5069516;28;20024;-50
2021/08/19 06:12:36;;;;;;;2.55;2.35;;;18.00;99.90;;;;;;5070724;28;20024;-52
2021/08/19 06:15:02;;;;;;;2.95;2.75;;;18.10;99.90;;;;;;5070719;28;20470;-52
2021/08/19 06:17:28;;;;;;;5.25;2.88;;;18.10;99.90;;;;;;5070109;28;20033;-53
2021/08/19 06:19:53;;;;;;;2.58;2.38;;;18.30;99.90;;;;;;5070835;28;20028;-53
2021/08/19 06:22:19;;;;;;;2.42;2.28;;;18.30;99.90;;;;;;5070902;28;20028;-51
2021/08/19 06:24:44;;;;;;;3.00;2.70;;;18.30;99.90;;;;;;5070660;28;20017;-47
2021/08/19 06:27:10;;;;;;;2.75;2.55;;;18.30;99.90;;;;;;5070083;28;20401;-51
2021/08/19 06:29:35;;;;;;;2.63;2.45;;;18.40;99.90;;;;;;5070207;28;20156;-50
2021/08/19 06:32:01;;;;;;;5.40;3.17;;;18.50;99.90;;;;;;5069345;28;20039;-47
2021/08/19 06:34:26;;;;;;;2.97;2.78;;;18.60;99.90;;;;;;5055240;28;20088;-53
2021/08/19 06:36:52;;;;;;;4.93;2.95;;;18.60;99.90;;;;;;5068959;28;20402;-49
2021/08/19 06:39:18;;;;;;;7.22;4.25;;;18.70;99.90;;;;;;5058709;28;20039;-54
2021/08/19 06:41:44;;;;;;;3.03;2.83;;;18.70;99.90;;;;;;5063807;28;20013;-53
2021/08/19 06:44:10;;;;;;;9.23;3.33;;;18.80;99.90;;;;;;5066491;28;20024;-53
2021/08/19 06:46:35;;;;;;;3.47;3.17;;;18.80;99.90;;;;;;5062979;28;20107;-51
2021/08/19 06:49:01;;;;;;;3.13;2.83;;;18.80;99.90;;;;;;5069865;28;20482;-51
2021/08/19 06:51:27;;;;;;;3.97;3.58;;;18.80;99.90;;;;;;5053499;28;20036;-54
2021/08/19 06:53:52;;;;;;;3.70;3.40;;;18.80;99.90;;;;;;5053172;28;20058;-48
2021/08/19 06:56:18;;;;;;;4.45;3.63;;;18.80;99.90;;;;;;5070848;28;20024;-51
2021/08/19 06:58:44;;;;;;;4.10;3.70;;;18.70;99.90;;;;;;5058802;28;20029;-55
2021/08/19 07:01:10;;;;;;;4.10;3.72;;;18.70;99.90;;;;;;5050677;28;20028;-53
2021/08/19 07:03:35;;;;;;;3.35;3.15;;;18.70;99.90;;;;;;5054555;28;20453;-52
2021/08/19 07:06:01;;;;;;;5.70;3.95;;;18.70;99.90;;;;;;5050500;28;20040;-53
2021/08/19 07:08:27;;;;;;;3.42;3.22;;;18.70;99.90;;;;;;5049293;28;20496;-52
2021/08/19 07:10:52;;;;;;;3.50;3.20;;;18.70;99.90;;;;;;5051184;28;20043;-49
2021/08/19 07:13:18;;;;;;;4.10;2.50;;;18.60;99.90;;;;;;5049881;28;20379;-49
2021/08/19 07:15:45;;;;;;;3.03;2.72;;;18.50;99.90;;;;;;5049837;28;20028;-50
2021/08/19 07:18:11;;;;;;;2.45;2.22;;;18.40;99.90;;;;;;5049298;28;20028;-47
2021/08/19 07:20:36;;;;;;;1.98;1.88;;;18.30;99.90;;;;;;5050858;28;20037;-51
2021/08/19 07:23:02;;;;;;;2.42;2.00;;;18.10;99.90;;;;;;5048711;28;20021;-46
2021/08/19 07:25:28;;;;;;;2.15;2.00;;;18.00;99.90;;;;;;5050065;28;20029;-51
2021/08/19 07:27:53;;;;;;;5.00;2.72;;;18.00;99.90;;;;;;5068267;28;20032;-52
2021/08/19 07:30:19;;;;;;;2.72;2.17;;;17.90;99.90;;;;;;5069831;28;20024;-48
2021/08/19 07:32:45;;;;;;;2.05;1.85;;;17.90;99.90;;;;;;5069042;28;20104;-49
2021/08/19 07:35:11;;;;;;;1.73;1.63;;;17.90;99.90;;;;;;5073427;28;20124;-50
2021/08/19 07:37:49;;;;;;;2.47;2.20;;;17.80;99.90;;;;;;5072715;28;20460;-48
2021/08/19 07:40:17;;;;;;;2.10;1.73;;;17.70;99.90;;;;;;5073439;28;20412;-53
2021/08/19 07:42:43;;;;;;;4.97;2.45;;;17.70;99.90;;;;;;5073336;28;20055;-53
2021/08/19 07:45:09;;;;;;;4.30;2.13;;;17.70;99.90;;;;;;5073256;28;20077;-52
2021/08/19 07:47:35;;;;;;;2.20;2.00;;;17.70;99.90;;;;;;5072406;28;20082;-50
2021/08/19 07:50:01;;;;;;;3.08;1.90;;;17.70;99.90;;;;;;5073103;28;20024;-52
2021/08/19 07:52:27;;;;;;;2.10;2.00;;;17.70;99.90;;;;;;5073006;28;20059;-55
2021/08/19 07:54:53;;;;;;;2.30;2.10;;;17.80;99.90;;;;;;5072795;28;20017;-50
2021/08/19 07:57:19;;;;;;;2.22;2.03;;;17.90;99.90;;;;;;5072396;28;20029;-48
2021/08/19 07:59:45;;;;;;;1.88;1.60;;;18.10;99.90;;;;;;5072923;28;20025;-54
2021/08/19 08:02:10;;;;;;;1.95;1.85;;;18.40;99.90;;;;;;5072930;28;20505;-51
2021/08/19 08:04:36;;;;;;;1.77;1.30;;;18.90;99.90;;;;;;5072801;28;20103;-50
2021/08/19 08:07:02;;;;;;;1.35;1.25;;;19.30;99.90;;;;;;5073013;28;20032;-48
2021/08/19 08:09:27;;;;;;;1.67;1.58;;;19.50;99.90;;;;;;5072124;28;20109;-52
2021/08/19 08:11:53;;;;;;;1.70;1.40;;;19.60;99.90;;;;;;5072882;28;20075;-51
2021/08/19 08:14:19;;;;;;;1.25;1.15;;;19.60;99.90;;;;;;5072862;28;20021;-53
2021/08/19 08:16:44;;;;;;;1.27;1.20;;;19.60;99.90;;;;;;5072779;28;20458;-53
2021/08/19 08:19:10;;;;;;;1.50;1.40;;;19.60;99.90;;;;;;5070717;28;20025;-53
2021/08/19 08:21:36;;;;;;;1.98;1.88;;;19.60;99.90;;;;;;5072655;28;20503;-49
2021/08/19 08:24:04;;;;;;;2.05;1.67;;;19.80;99.90;;;;;;5072662;28;20021;-53
2021/08/19 08:26:29;;;;;;;2.78;1.98;;;19.80;99.90;;;;;;5072366;28;20058;-49
2021/08/19 08:28:57;;;;;;;2.08;1.90;;;19.90;99.90;;;;;;5071935;28;20073;-53
2021/08/19 08:31:23;;;;;;;2.10;2.00;;;19.90;99.90;;;;;;5072307;28;20028;-51
2021/08/19 08:33:49;;;;;;;3.42;1.75;;;19.90;99.90;;;;;;5071469;28;20074;-45
2021/08/19 08:36:14;;;;;;;1.70;1.60;;;20.00;99.90;;;;;;5070891;28;20036;-54
2021/08/19 08:38:40;;;;;;;2.05;1.85;;;20.10;99.90;;;;;;5070147;28;20017;-51
2021/08/19 08:41:06;;;;;;;2.10;2.00;;;20.20;99.90;;;;;;5070867;28;20024;-52
2021/08/19 08:43:34;;;;;;;2.78;2.58;;;20.40;99.90;;;;;;5072202;28;20501;-53
2021/08/19 08:46:00;;;;;;;2.30;2.20;;;20.70;99.90;;;;;;5070910;28;20031;-52
2021/08/19 08:48:27;;;;;;;2.38;2.10;;;20.80;99.90;;;;;;5072782;28;20020;-50
2021/08/19 08:50:56;;;;;;;2.38;2.17;;;20.90;99.90;;;;;;5070402;28;20486;-49
2021/08/19 08:53:22;;;;;;;1.92;1.83;;;20.90;99.90;;;;;;5071835;28;20393;-50
2021/08/19 08:55:47;;;;;;;3.50;2.25;;;20.60;99.90;;;;;;5071612;28;20024;-51
2021/08/19 08:58:14;;;;;;;3.83;2.50;;;20.50;99.90;;;;;;5071160;28;20016;-50
2021/08/19 09:00:44;;;;;;;4.22;2.05;;;20.40;99.90;;;;;;5070506;28;20044;-47
2021/08/19 09:03:11;;;;;;;2.15;2.05;;;20.40;99.90;;;;;;5072096;28;20031;-53
2021/08/19 09:05:45;;;;;;;3.40;2.00;;;20.30;99.90;;;;;;5071718;28;20032;-51
2021/08/19 09:08:17;;;;;;;2.70;2.50;;;20.30;99.90;;;;;;5069613;28;20036;-47
2021/08/19 09:10:44;;;;;;;2.80;2.60;;;20.60;99.90;;;;;;5069993;28;20032;-49
2021/08/19 09:13:16;;;;;;;3.38;3.08;;;21.00;99.90;;;;;;5071063;28;20521;-55
2021/08/19 09:15:43;;;;;;;2.75;2.55;;;21.20;99.90;;;;;;5071255;28;20024;-47
2021/08/19 09:18:09;;;;;;;3.22;2.85;;;21.20;99.90;;;;;;5070868;28;20024;-53
2021/08/19 09:20:39;;;;;;;3.95;2.42;;;21.20;99.90;;;;;;5070465;28;20373;-50
2021/08/19 09:23:14;;;;;;;2.95;2.75;;;21.20;99.90;;;;;;5071388;28;20042;-54
2021/08/19 09:25:42;;;;;;;3.03;2.67;;;21.20;99.90;;;;;;5069953;28;20517;-50
2021/08/19 09:28:18;;;;;;;7.32;3.25;;;21.20;99.90;;;;;;5070526;28;20085;-52
2021/08/19 09:30:47;;;;;;;3.55;2.92;;;21.30;99.90;;;;;;5070849;28;20543;-51
2021/08/19 09:33:14;;;;;;;3.80;3.40;;;21.30;99.90;;;;;;5070004;28;20029;-51
2021/08/19 09:35:40;;;;;;;5.53;3.88;;;21.40;99.90;;;;;;5070454;28;20073;-51
2021/08/19 09:38:11;;;;;;;4.13;3.83;;;21.40;99.90;;;;;;5058388;28;20579;-50
2021/08/19 09:40:36;;;;;;;3.80;3.50;;;22.00;99.90;;;;;;5059557;28;20078;-54
2021/08/19 09:43:03;;;;;;;3.90;3.60;;;22.10;99.90;;;;;;5057911;28;20016;-49
2021/08/19 09:45:28;;;;;;;6.43;3.97;;;22.00;99.90;;;;;;5059278;28;20074;-49
2021/08/19 09:48:07;;;;;;;4.40;4.00;;;21.80;99.90;;;;;;5053618;28;20047;-48
2021/08/19 09:50:33;;;;;;;5.70;4.57;;;22.00;99.90;;;;;;5060516;28;20501;-51
2021/08/19 09:53:15;;;;;;;4.68;4.28;;;22.20;99.90;;;;;;5070499;28;20016;-54
2021/08/19 09:55:42;;;;;;;6.13;4.65;;;22.40;99.90;;;;;;5049067;28;20029;-52
2021/08/19 09:58:08;;;;;;;4.38;3.97;;;22.40;99.90;;;;;;5048997;28;20025;-50
2021/08/19 10:00:40;;;;;;;5.25;4.75;;;22.40;99.90;;;;;;5032982;28;20025;-49
2021/08/19 10:03:06;;;;;;;5.32;4.60;;;22.60;99.90;;;;;;5050429;28;20497;-51
2021/08/19 10:05:32;;;;;;;4.70;4.30;;;22.80;99.80;;;;;;5050549;28;20114;-55
2021/08/19 10:08:01;;;;;;;6.60;3.38;;;22.90;99.90;;;;;;5050347;28;20478;-49
2021/08/19 10:10:28;;;;;;;3.13;2.92;;;23.20;99.30;;;;;;5050330;28;20516;-52
2021/08/19 10:12:57;;;;;;;3.58;3.35;;;23.10;98.60;;;;;;5050519;28;20033;-52
2021/08/19 10:15:23;;;;;;;3.88;3.58;;;23.20;98.90;;;;;;5049004;28;20028;-49
2021/08/19 10:17:52;;;;;;;3.45;3.20;;;23.40;98.60;;;;;;5058826;28;20386;-49
2021/08/19 10:20:24;;;;;;;5.28;3.58;;;23.50;98.70;;;;;;5070490;28;20086;-48
2021/08/19 10:22:51;;;;;;;3.50;3.20;;;23.50;99.00;;;;;;5070318;28;20104;-49
2021/08/19 10:25:18;;;;;;;4.22;3.60;;;23.50;98.90;;;;;;5069312;28;20463;-52
2021/08/19 10:27:43;;;;;;;3.75;3.45;;;23.40;98.60;;;;;;5070024;28;20032;-53
2021/08/19 10:30:20;;;;;;;6.70;3.65;;;23.20;98.80;;;;;;5070475;28;20439;-48
2021/08/19 10:32:53;;;;;;;4.93;4.45;;;23.10;98.80;;;;;;5070233;28;20135;-53
2021/08/19 10:35:26;;;;;;;5.38;4.13;;;23.00;98.70;;;;;;5070081;28;20025;-45
2021/08/19 10:37:52;;;;;;;6.05;4.38;;;23.00;98.90;;;;;;5069878;28;20078;-46
2021/08/19 10:40:23;;;;;;;4.70;4.30;;;22.60;99.10;;;;;;5070302;28;20477;-50
2021/08/19 10:42:51;;;;;;;6.15;4.68;;;22.40;99.50;;;;;;5069996;28;20442;-48
2021/08/19 10:45:28;;;;;;;5.30;4.80;;;22.40;99.70;;;;;;5070300;28;20482;-52
2021/08/19 10:48:00;;;;;;;6.32;5.70;;;22.30;99.80;;;;;;5069483;28;20032;-50
2021/08/19 10:50:30;;;;;;;9.15;5.35;;;22.10;99.90;;;;;;5070035;28;20390;-47
2021/08/19 10:53:08;;;;;;;6.95;5.22;;;22.00;99.90;;;;;;5069924;28;20060;-49
2021/08/19 10:55:48;;;;;;;5.50;5.00;;;21.80;99.90;;;;;;5069792;28;20300;-49
2021/08/19 10:58:30;;;;;;;6.03;5.38;;;21.70;99.90;;;;;;5069327;28;20027;-46
2021/08/19 11:00:58;;;;;;;5.43;4.93;;;21.60;99.90;;;;;;5057944;28;20033;-48
2021/08/19 11:03:36;;;;;;;6.55;4.43;;;21.50;99.90;;;;;;5064942;28;20536;-50
2021/08/19 11:06:10;;;;;;;4.57;4.15;;;21.40;99.90;;;;;;5070080;28;20032;-46
2021/08/19 11:08:52;;;;;;;7.97;5.70;;;21.40;99.90;;;;;;5061866;28;20079;-47
2021/08/19 11:11:36;;;;;;;6.10;5.18;;;21.40;99.90;;;;;;5073722;28;20029;-48
2021/08/19 11:14:08;;;;;;;5.88;5.35;;;21.50;99.90;;;;;;5072488;28;20503;-49
2021/08/19 11:16:35;;;;;;;5.20;4.60;;;21.60;99.90;;;;;;5067662;28;20025;-46
2021/08/19 11:19:21;;;;;;;4.68;3.92;;;21.70;99.90;;;;;;5054440;28;20017;-44
2021/08/19 11:22:01;;;;;;;3.90;3.60;;;21.80;99.90;;;;;;5053712;28;20028;-44
2021/08/19 11:24:33;;;;;;;3.30;2.90;;;22.00;99.90;;;;;;5053848;28;20017;-49
2021/08/19 11:27:06;;;;;;;3.30;2.97;;;22.10;99.80;;;;;;5053650;28;20060;-47
2021/08/19 11:29:36;;;;;;;3.65;3.35;;;22.20;99.60;;;;;;5054024;28;20028;-49
2021/08/19 11:32:05;;;;;;;3.67;3.38;;;22.10;99.90;;;;;;5067032;28;20029;-45
2021/08/19 11:34:31;;;;;;;4.68;4.05;;;22.10;99.90;;;;;;5071896;28;20024;-47
2021/08/19 11:36:57;;;;;;;4.15;3.60;;;22.10;99.90;;;;;;5073231;28;20478;-47
2021/08/19 11:39:27;;;;;;;4.18;3.75;;;22.00;99.70;;;;;;5071790;28;20021;-48
2021/08/19 11:41:57;;;;;;;5.32;3.83;;;21.80;99.90;;;;;;5073438;28;20020;-47
2021/08/19 11:44:23;;;;;;;5.63;4.65;;;21.70;99.90;;;;;;5067927;28;20013;-48
2021/08/19 11:46:49;;;;;;;4.30;4.00;;;21.70;99.90;;;;;;5052834;28;20041;-47
2021/08/19 11:49:16;;;;;;;4.88;4.35;;;21.60;99.90;;;;;;5053945;28;20493;-51
2021/08/19 11:51:42;;;;;;;5.68;4.95;;;21.60;99.90;;;;;;5053405;28;20068;-48
2021/08/19 11:54:11;;;;;;;4.13;3.72;;;21.60;99.90;;;;;;5053854;28;20029;-46
2021/08/19 11:56:46;;;;;;;4.03;3.63;;;21.40;99.90;;;;;;5071283;28;20036;-45
2021/08/19 11:59:17;;;;;;;4.20;3.78;;;21.40;99.90;;;;;;5071452;28;20032;-47
2021/08/19 12:01:51;;;;;;;5.55;3.67;;;21.40;99.90;;;;;;5072311;28;20493;-50
2021/08/19 12:04:30;;;;;;;3.72;3.40;;;21.50;99.90;;;;;;5057174;28;20040;-51
2021/08/19 12:06:56;;;;;;;3.70;3.40;;;21.50;99.90;;;;;;5071036;28;20036;-48
2021/08/19 12:09:22;;;;;;;3.55;3.25;;;21.50;99.90;;;;;;5072598;28;20035;-59
2021/08/19 12:11:49;;;;;;;3.85;3.55;;;21.50;99.90;;;;;;5068038;28;20039;-57
2021/08/19 12:14:15;;;;;;;7.05;3.47;;;21.40;99.90;;;;;;5056373;28;20024;-50
2021/08/19 12:16:48;;;;;;;4.30;3.25;;;21.30;99.90;;;;;;5065412;28;20292;-49
2021/08/19 12:19:16;;;;;;;3.30;3.10;;;21.20;99.90;;;;;;5063468;28;20481;-54
2021/08/19 12:21:52;;;;;;;3.13;2.92;;;21.10;99.90;;;;;;5063916;28;20021;-50
2021/08/19 12:24:35;;;;;;;3.22;3.03;;;20.90;99.90;;;;;;5064665;28;20067;-53
2021/08/19 12:27:06;;;;;;;3.60;3.30;;;20.70;99.90;;;;;;5052494;28;20025;-48
2021/08/19 12:29:59;;;;;;;3.67;3.38;;;20.50;99.90;;;;;;5054042;28;20025;-51
2021/08/19 12:32:29;;;;;;;3.58;3.10;;;20.40;99.90;;;;;;5052887;28;20319;-49
2021/08/19 12:35:12;;;;;;;3.40;3.10;;;20.50;99.90;;;;;;5061539;28;20099;-51
2021/08/19 12:37:39;;;;;;;3.65;3.35;;;20.50;99.90;;;;;;5052128;28;20025;-49
2021/08/19 12:40:15;;;;;;;3.40;3.10;;;20.60;99.90;;;;;;5052857;28;20028;-49
2021/08/19 12:42:46;;;;;;;2.78;2.58;;;20.70;99.90;;;;;;5052424;28;20025;-49
2021/08/19 12:45:15;;;;;;;3.10;2.70;;;20.90;99.90;;;;;;5052507;28;20304;-49
2021/08/19 12:47:46;;;;;;;3.47;3.05;;;21.10;99.90;;;;;;5052279;28;20411;-48
2021/08/19 12:50:17;;;;;;;8.75;3.65;;;21.20;99.90;;;;;;5052352;28;20106;-49